Terminal Aerodrome Forecast
Issued by NWS

Home | Current Version | Previous Version | Text Only | Print | Product List | Glossary On
Versions: 1 2 3 4 5 6 7 8 9 10 11 12 13 14 15 16
000
FTUS42 KMLB 062337
TAFLEE
TAF
KLEE 062337Z 0700/0724 01006KT P6SM FEW100 SCT250
     FM070600 34005KT P6SM SCT250
     FM071500 32007KT P6SM FEW030=

USA.gov is the U.S. government's official web portal to all federal, state and local government web resources and services.